createdAt,value
2022-12-11T00:02:20.871Z,89.56
2022-12-11T00:07:52.567Z,89.6
2022-12-11T00:13:24.216Z,89.83
2022-12-11T00:18:55.920Z,90.62
2022-12-11T00:24:27.606Z,91.14
2022-12-11T00:29:59.423Z,91.52
2022-12-11T00:35:31.141Z,91.77
2022-12-11T00:41:09.260Z,91.8
2022-12-11T00:46:40.925Z,92.81
2022-12-11T00:52:12.645Z,92.49
2022-12-11T00:57:44.450Z,92.61
2022-12-11T01:03:16.170Z,93.52
2022-12-11T01:08:48.261Z,93.5
2022-12-11T01:14:19.560Z,93.9
2022-12-11T01:19:51.350Z,94.64
2022-12-11T01:25:23.164Z,94.53
2022-12-11T01:30:54.919Z,94.62
2022-12-11T01:36:26.405Z,94.43
2022-12-11T01:42:04.656Z,94.67
2022-12-11T01:47:36.298Z,94.41
2022-12-11T01:53:08.093Z,94.03
2022-12-11T01:58:39.768Z,94.13
2022-12-11T02:04:12.760Z,94.16
2022-12-11T02:09:43.082Z,94.04
2022-12-11T02:15:14.805Z,94.34
2022-12-11T02:20:46.653Z,93.78
2022-12-11T02:26:18.215Z,93.59
2022-12-11T02:31:50.067Z,93.91
2022-12-11T02:37:21.817Z,94.38
2022-12-11T02:42:59.856Z,94.86
2022-12-11T02:48:31.582Z,94.41
2022-12-11T02:54:03.208Z,94.9
2022-12-11T02:59:34.989Z,94.82
2022-12-11T03:05:06.637Z,94.76
2022-12-11T03:10:38.468Z,94.94
2022-12-11T03:16:10.260Z,94.63
2022-12-11T03:21:42.377Z,94.17
2022-12-11T03:27:13.602Z,94.81
2022-12-11T03:32:45.296Z,94.69
2022-12-11T03:38:17.126Z,94.43
2022-12-11T03:43:53.217Z,94.89
2022-12-11T03:49:24.912Z,94.59
2022-12-11T03:54:56.680Z,94.32
2022-12-11T04:00:28.416Z,94.06
2022-12-11T04:06:00.281Z,94.75
2022-12-11T04:11:32.703Z,94.33
2022-12-11T04:17:03.608Z,94.77
2022-12-11T04:22:35.324Z,94.44
2022-12-11T04:28:07.108Z,94.85
2022-12-11T04:33:39.024Z,95.13
2022-12-11T04:39:10.500Z,96.29
2022-12-11T04:44:46.632Z,96.29
2022-12-11T04:50:18.416Z,95.16
2022-12-11T04:55:50.400Z,94.98
2022-12-11T05:01:21.607Z,94.54
2022-12-11T05:06:53.240Z,94.03
2022-12-11T05:12:25.008Z,93.33
2022-12-11T05:17:56.698Z,92.71
2022-12-11T05:23:28.415Z,91.52
2022-12-11T05:29:00.176Z,91.62
2022-12-11T05:34:31.888Z,91.18
2022-12-11T05:40:03.643Z,90.48
2022-12-11T05:45:39.707Z,89.91
2022-12-11T05:51:11.505Z,89.71
2022-12-11T05:56:43.128Z,89.59
2022-12-11T06:02:15.181Z,89.51
2022-12-11T06:07:46.665Z,89.04
2022-12-11T06:13:18.417Z,88.68
2022-12-11T06:18:50.106Z,88.76
2022-12-11T06:24:21.849Z,89.26
2022-12-11T06:29:53.567Z,89.55
2022-12-11T06:35:25.283Z,89.53
2022-12-11T06:40:57.014Z,89.41
2022-12-11T06:46:33.087Z,89.57
2022-12-11T06:52:04.908Z,90.25
2022-12-11T06:57:36.806Z,90.28
2022-12-11T07:03:08.336Z,90.31
2022-12-11T07:08:40.084Z,90.79
2022-12-11T07:14:11.826Z,90.73
2022-12-11T07:19:43.568Z,90.66
2022-12-11T07:25:15.152Z,90.5
2022-12-11T07:30:46.865Z,91.41
2022-12-11T07:36:18.681Z,91.6
2022-12-11T07:41:50.358Z,91.75
2022-12-11T07:47:26.508Z,91.66
2022-12-11T07:52:58.133Z,91.93
2022-12-11T07:58:29.961Z,92.55
2022-12-11T08:04:01.544Z,92.94
2022-12-11T08:09:33.352Z,92.94
2022-12-11T08:15:05.160Z,92.76
2022-12-11T08:20:37.001Z,93.03
2022-12-11T08:26:08.550Z,93.74
2022-12-11T08:31:40.240Z,93.87
2022-12-11T08:37:12.097Z,94.23
2022-12-11T08:42:43.770Z,94.35
2022-12-11T08:48:21.888Z,94.94
2022-12-11T08:53:53.595Z,95.31
2022-12-11T08:59:25.401Z,94.8
2022-12-11T09:04:57.108Z,94.5
2022-12-11T09:10:28.817Z,95.08
2022-12-11T09:16:01.068Z,94.82
2022-12-11T09:21:32.287Z,94.33
2022-12-11T09:27:03.888Z,95.24
2022-12-11T09:32:35.620Z,93.41
2022-12-11T09:38:07.427Z,94.06
2022-12-11T09:43:39.166Z,93.53
2022-12-11T09:49:17.188Z,93.51
2022-12-11T09:54:48.839Z,94.04
2022-12-11T10:00:20.613Z,95.02
2022-12-11T10:05:52.278Z,94.44
2022-12-11T10:11:24.108Z,94.48
2022-12-11T10:16:55.847Z,93.88
2022-12-11T10:22:27.526Z,92.73
2022-12-11T10:27:59.197Z,93.07
2022-12-11T10:33:30.960Z,94.01
2022-12-11T10:39:02.761Z,94.0
2022-12-11T10:44:34.322Z,93.21
2022-12-11T10:50:10.601Z,93.42
2022-12-11T10:55:42.226Z,93.74
2022-12-11T11:01:14.141Z,94.36
2022-12-11T11:06:45.770Z,93.9
2022-12-11T11:12:17.518Z,93.92
2022-12-11T11:17:55.954Z,93.61
2022-12-11T11:23:20.821Z,93.8
2022-12-11T11:28:52.661Z,93.89
2022-12-11T11:34:24.425Z,92.14
2022-12-11T11:39:56.281Z,91.52
2022-12-11T11:45:28.029Z,89.84
2022-12-11T11:51:08.256Z,89.5
2022-12-11T11:56:39.990Z,88.96
2022-12-11T12:02:11.820Z,91.73
2022-12-11T12:07:43.619Z,92.13
2022-12-11T12:13:49.809Z,90.88
2022-12-11T12:18:46.841Z,90.17
2022-12-11T12:24:18.601Z,91.85
2022-12-11T12:29:50.309Z,91.58
2022-12-11T12:35:22.077Z,91.53
2022-12-11T12:40:53.737Z,91.17
2022-12-11T12:46:25.493Z,90.52
2022-12-11T12:52:01.636Z,90.18
2022-12-11T12:57:33.377Z,90.72
2022-12-11T13:03:05.089Z,90.46
2022-12-11T13:08:37.019Z,90.21
2022-12-11T13:14:08.864Z,90.58
2022-12-11T13:19:43.176Z,89.66
2022-12-11T13:25:12.669Z,91.04
2022-12-11T13:30:43.739Z,90.82
2022-12-11T13:36:24.243Z,90.8
2022-12-11T13:41:47.677Z,90.2
2022-12-11T13:47:19.024Z,90.61
2022-12-11T13:52:55.242Z,90.18
2022-12-11T13:58:26.793Z,89.85
2022-12-11T14:03:58.704Z,90.52
2022-12-11T14:09:30.506Z,90.5
2022-12-11T14:15:02.809Z,90.38
2022-12-11T14:20:33.947Z,90.84
2022-12-11T14:26:05.612Z,90.46
2022-12-11T14:31:37.483Z,90.33
2022-12-11T14:37:08.925Z,89.91
2022-12-11T14:42:40.766Z,90.13
2022-12-11T14:48:12.447Z,90.49
2022-12-11T14:53:50.584Z,90.7
2022-12-11T14:59:31.559Z,91.03
2022-12-11T15:04:54.166Z,91.23
2022-12-11T15:10:25.751Z,91.53
2022-12-11T15:15:57.522Z,91.08
2022-12-11T15:21:29.247Z,91.13
2022-12-11T15:27:00.953Z,90.99
2022-12-11T15:32:32.682Z,91.48
2022-12-11T15:38:04.920Z,92.19
2022-12-11T15:43:36.315Z,92.3
2022-12-11T15:49:07.991Z,93.54
2022-12-11T15:54:44.073Z,93.29
2022-12-11T16:00:16.269Z,92.95
2022-12-11T16:05:47.681Z,93.12
2022-12-11T16:11:19.582Z,92.94
2022-12-11T16:16:51.453Z,93.04
2022-12-11T16:22:22.866Z,93.12
2022-12-11T16:27:54.565Z,93.45
2022-12-11T16:33:26.422Z,93.19
2022-12-11T16:38:58.035Z,93.14
2022-12-11T16:44:29.737Z,92.81
2022-12-11T16:50:01.423Z,92.89
2022-12-11T16:55:37.576Z,92.78
2022-12-11T17:01:09.379Z,93.09
2022-12-11T17:06:40.833Z,92.75
2022-12-11T17:12:13.409Z,92.92
2022-12-11T17:17:44.580Z,93.66
2022-12-11T17:23:16.129Z,93.67
2022-12-11T17:28:48.136Z,94.3
2022-12-11T17:34:19.685Z,93.99
2022-12-11T17:39:51.885Z,93.63
2022-12-11T17:45:23.117Z,93.13
2022-12-11T17:50:54.741Z,93.85
2022-12-11T17:56:30.884Z,93.84
2022-12-11T18:02:02.735Z,93.43
2022-12-11T18:07:34.272Z,92.73
2022-12-11T18:13:06.130Z,92.89
2022-12-11T18:18:37.729Z,92.59
2022-12-11T18:24:09.552Z,92.12
2022-12-11T18:29:41.225Z,90.9
2022-12-11T18:35:13.531Z,90.83
2022-12-11T18:40:44.808Z,90.21
2022-12-11T18:46:16.539Z,90.5
2022-12-11T18:51:48.415Z,90.61
2022-12-11T18:57:24.312Z,91.15
2022-12-11T19:02:56.251Z,90.66
2022-12-11T19:08:27.839Z,89.92
2022-12-11T19:14:00.044Z,89.38
2022-12-11T19:19:31.188Z,88.72
2022-12-11T19:25:02.909Z,88.73
2022-12-11T19:30:34.908Z,88.95
2022-12-11T19:36:06.340Z,88.9
2022-12-11T19:41:38.173Z,89.2
2022-12-11T19:47:09.865Z,89.65
2022-12-11T19:52:46.713Z,90.26
2022-12-11T19:58:17.609Z,90.04
2022-12-11T20:03:49.303Z,90.84
2022-12-11T20:09:21.184Z,91.09
2022-12-11T20:14:52.914Z,91.36
2022-12-11T20:20:24.576Z,92.05
2022-12-11T20:25:59.393Z,92.6
2022-12-11T20:31:28.036Z,93.26
2022-12-11T20:36:59.707Z,92.51
2022-12-11T20:42:31.601Z,92.07
2022-12-11T20:48:03.184Z,92.98
2022-12-11T20:53:34.791Z,93.18
2022-12-11T20:59:13.021Z,93.48
2022-12-11T21:04:44.922Z,93.23
2022-12-11T21:10:16.569Z,93.3
2022-12-11T21:15:48.145Z,93.7
2022-12-11T21:21:19.994Z,93.49
2022-12-11T21:26:52.169Z,93.98
2022-12-11T21:32:23.366Z,93.52
2022-12-11T21:37:55.169Z,93.78
2022-12-11T21:43:26.866Z,94.65
2022-12-11T21:48:58.512Z,95.22
2022-12-11T21:54:30.305Z,95.05
2022-12-11T22:00:08.344Z,94.93
2022-12-11T22:05:40.417Z,94.79
2022-12-11T22:11:11.858Z,95.14
2022-12-11T22:16:43.646Z,96.35
2022-12-11T22:22:15.884Z,96.31
2022-12-11T22:27:46.897Z,95.96
2022-12-11T22:33:18.600Z,95.63
2022-12-11T22:38:50.276Z,95.78
2022-12-11T22:44:22.051Z,95.57
2022-12-11T22:49:53.772Z,95.88
2022-12-11T22:55:25.521Z,95.04
2022-12-11T23:01:02.908Z,94.05
2022-12-11T23:06:33.452Z,93.21
2022-12-11T23:12:04.996Z,92.78
2022-12-11T23:17:36.638Z,93.04
2022-12-11T23:23:08.505Z,93.35
2022-12-11T23:28:40.256Z,93.09
2022-12-11T23:34:11.992Z,93.22
2022-12-11T23:39:43.752Z,92.76
2022-12-11T23:45:15.986Z,92.41
2022-12-11T23:50:47.188Z,92.12
2022-12-11T23:56:18.904Z,92.19
